sensor_id;sensor_type;location;lat;lon;timestamp;P1;durP1;ratioP1;P2;durP2;ratioP2
65658;SDS011;60181;53.258;6.932;2024-03-02T00:00:30;13.40;;;5.10;;
65658;SDS011;60181;53.258;6.932;2024-03-02T00:04:44;13.40;;;5.10;;
65658;SDS011;60181;53.258;6.932;2024-03-02T00:08:56;13.40;;;5.10;;
65658;SDS011;60181;53.258;6.932;2024-03-02T00:13:06;9.30;;;5.00;;
65658;SDS011;60181;53.258;6.932;2024-03-02T00:17:21;9.30;;;5.00;;
65658;SDS011;60181;53.258;6.932;2024-03-02T00:21:30;10.30;;;5.70;;
65658;SDS011;60181;53.258;6.932;2024-03-02T00:25:48;10.30;;;5.70;;
65658;SDS011;60181;53.258;6.932;2024-03-02T00:29:54;11.10;;;6.00;;
65658;SDS011;60181;53.258;6.932;2024-03-02T00:34:06;11.10;;;6.00;;
65658;SDS011;60181;53.258;6.932;2024-03-02T00:38:18;11.10;;;6.00;;
65658;SDS011;60181;53.258;6.932;2024-03-02T00:42:31;12.90;;;6.20;;
65658;SDS011;60181;53.258;6.932;2024-03-02T00:46:42;12.90;;;6.20;;
65658;SDS011;60181;53.258;6.932;2024-03-02T00:50:54;15.30;;;6.20;;
65658;SDS011;60181;53.258;6.932;2024-03-02T00:55:06;15.30;;;6.20;;
65658;SDS011;60181;53.258;6.932;2024-03-02T00:59:18;13.00;;;6.20;;
65658;SDS011;60181;53.258;6.932;2024-03-02T01:03:31;13.00;;;6.20;;
65658;SDS011;60181;53.258;6.932;2024-03-02T01:07:42;13.00;;;6.20;;
65658;SDS011;60181;53.258;6.932;2024-03-02T01:11:54;12.30;;;6.20;;
65658;SDS011;60181;53.258;6.932;2024-03-02T01:16:06;12.30;;;6.20;;
65658;SDS011;60181;53.258;6.932;2024-03-02T01:20:18;12.70;;;6.40;;
65658;SDS011;60181;53.258;6.932;2024-03-02T01:24:30;12.70;;;6.40;;
65658;SDS011;60181;53.258;6.932;2024-03-02T01:28:42;12.70;;;6.40;;
65658;SDS011;60181;53.258;6.932;2024-03-02T01:32:54;13.20;;;6.30;;
65658;SDS011;60181;53.258;6.932;2024-03-02T01:37:06;13.20;;;6.30;;
65658;SDS011;60181;53.258;6.932;2024-03-02T01:41:18;11.70;;;6.20;;
65658;SDS011;60181;53.258;6.932;2024-03-02T01:45:30;11.70;;;6.20;;
65658;SDS011;60181;53.258;6.932;2024-03-02T01:49:42;11.40;;;6.10;;
65658;SDS011;60181;53.258;6.932;2024-03-02T01:53:54;11.40;;;6.10;;
65658;SDS011;60181;53.258;6.932;2024-03-02T01:58:06;11.40;;;6.10;;
65658;SDS011;60181;53.258;6.932;2024-03-02T02:02:18;10.60;;;5.70;;
65658;SDS011;60181;53.258;6.932;2024-03-02T02:06:30;10.60;;;5.70;;
65658;SDS011;60181;53.258;6.932;2024-03-02T02:10:42;11.00;;;5.80;;
65658;SDS011;60181;53.258;6.932;2024-03-02T02:14:54;11.00;;;5.80;;
65658;SDS011;60181;53.258;6.932;2024-03-02T02:19:06;11.30;;;5.30;;
65658;SDS011;60181;53.258;6.932;2024-03-02T02:23:18;11.30;;;5.30;;
65658;SDS011;60181;53.258;6.932;2024-03-02T02:27:30;11.30;;;5.30;;
65658;SDS011;60181;53.258;6.932;2024-03-02T02:31:42;10.70;;;5.30;;
65658;SDS011;60181;53.258;6.932;2024-03-02T02:35:54;10.70;;;5.30;;
65658;SDS011;60181;53.258;6.932;2024-03-02T02:40:06;9.60;;;5.10;;
65658;SDS011;60181;53.258;6.932;2024-03-02T02:44:18;9.60;;;5.10;;
65658;SDS011;60181;53.258;6.932;2024-03-02T02:48:30;9.60;;;5.10;;
65658;SDS011;60181;53.258;6.932;2024-03-02T02:52:42;8.70;;;4.40;;
65658;SDS011;60181;53.258;6.932;2024-03-02T02:56:54;8.70;;;4.40;;
65658;SDS011;60181;53.258;6.932;2024-03-02T03:01:06;7.80;;;4.30;;
65658;SDS011;60181;53.258;6.932;2024-03-02T03:05:18;7.80;;;4.30;;
65658;SDS011;60181;53.258;6.932;2024-03-02T03:09:30;8.40;;;4.20;;
65658;SDS011;60181;53.258;6.932;2024-03-02T03:13:42;8.40;;;4.20;;
65658;SDS011;60181;53.258;6.932;2024-03-02T03:17:54;8.40;;;4.20;;
65658;SDS011;60181;53.258;6.932;2024-03-02T03:22:06;6.40;;;3.80;;
65658;SDS011;60181;53.258;6.932;2024-03-02T03:26:18;6.40;;;3.80;;
65658;SDS011;60181;53.258;6.932;2024-03-02T03:30:30;7.70;;;3.70;;
65658;SDS011;60181;53.258;6.932;2024-03-02T03:34:42;7.70;;;3.70;;
65658;SDS011;60181;53.258;6.932;2024-03-02T03:38:54;7.70;;;3.70;;
65658;SDS011;60181;53.258;6.932;2024-03-02T03:43:06;5.60;;;3.50;;
65658;SDS011;60181;53.258;6.932;2024-03-02T03:47:18;5.60;;;3.50;;
65658;SDS011;60181;53.258;6.932;2024-03-02T03:51:30;6.60;;;3.40;;
65658;SDS011;60181;53.258;6.932;2024-03-02T03:55:42;6.60;;;3.40;;
65658;SDS011;60181;53.258;6.932;2024-03-02T03:59:54;6.60;;;3.40;;
65658;SDS011;60181;53.258;6.932;2024-03-02T04:04:06;6.60;;;3.40;;
65658;SDS011;60181;53.258;6.932;2024-03-02T04:08:18;6.60;;;3.40;;
65658;SDS011;60181;53.258;6.932;2024-03-02T04:12:30;6.00;;;3.40;;
65658;SDS011;60181;53.258;6.932;2024-03-02T04:16:42;6.00;;;3.40;;
65658;SDS011;60181;53.258;6.932;2024-03-02T04:20:54;6.90;;;3.20;;
65658;SDS011;60181;53.258;6.932;2024-03-02T04:25:06;6.90;;;3.20;;
65658;SDS011;60181;53.258;6.932;2024-03-02T04:29:18;7.10;;;3.00;;
65658;SDS011;60181;53.258;6.932;2024-03-02T04:33:30;7.10;;;3.00;;
65658;SDS011;60181;53.258;6.932;2024-03-02T04:37:42;7.10;;;3.00;;
65658;SDS011;60181;53.258;6.932;2024-03-02T04:41:54;9.20;;;3.30;;
65658;SDS011;60181;53.258;6.932;2024-03-02T04:46:06;9.20;;;3.30;;
65658;SDS011;60181;53.258;6.932;2024-03-02T04:50:18;10.60;;;3.20;;
65658;SDS011;60181;53.258;6.932;2024-03-02T04:54:30;10.60;;;3.20;;
65658;SDS011;60181;53.258;6.932;2024-03-02T04:58:42;10.60;;;3.20;;
65658;SDS011;60181;53.258;6.932;2024-03-02T05:02:53;6.10;;;2.90;;
65658;SDS011;60181;53.258;6.932;2024-03-02T05:07:05;6.10;;;2.90;;
65658;SDS011;60181;53.258;6.932;2024-03-02T05:11:17;5.80;;;3.10;;
65658;SDS011;60181;53.258;6.932;2024-03-02T05:15:30;5.80;;;3.10;;
65658;SDS011;60181;53.258;6.932;2024-03-02T05:19:41;5.50;;;3.00;;
65658;SDS011;60181;53.258;6.932;2024-03-02T05:23:53;5.50;;;3.00;;
65658;SDS011;60181;53.258;6.932;2024-03-02T05:28:05;5.50;;;3.00;;
65658;SDS011;60181;53.258;6.932;2024-03-02T05:32:17;5.90;;;3.10;;
65658;SDS011;60181;53.258;6.932;2024-03-02T05:36:29;5.90;;;3.10;;
65658;SDS011;60181;53.258;6.932;2024-03-02T05:40:41;6.30;;;3.00;;
65658;SDS011;60181;53.258;6.932;2024-03-02T05:44:53;6.30;;;3.00;;
65658;SDS011;60181;53.258;6.932;2024-03-02T05:49:05;6.90;;;3.00;;
65658;SDS011;60181;53.258;6.932;2024-03-02T05:53:17;6.90;;;3.00;;
65658;SDS011;60181;53.258;6.932;2024-03-02T05:57:29;6.90;;;3.00;;
65658;SDS011;60181;53.258;6.932;2024-03-02T06:01:42;12.60;;;3.00;;
65658;SDS011;60181;53.258;6.932;2024-03-02T06:05:54;12.60;;;3.00;;
65658;SDS011;60181;53.258;6.932;2024-03-02T06:10:06;9.30;;;2.90;;
65658;SDS011;60181;53.258;6.932;2024-03-02T06:14:17;9.30;;;2.90;;
65658;SDS011;60181;53.258;6.932;2024-03-02T06:18:29;9.30;;;2.90;;
65658;SDS011;60181;53.258;6.932;2024-03-02T06:22:41;7.70;;;3.30;;
65658;SDS011;60181;53.258;6.932;2024-03-02T06:26:53;7.70;;;3.30;;
65658;SDS011;60181;53.258;6.932;2024-03-02T06:31:05;18.10;;;3.10;;
65658;SDS011;60181;53.258;6.932;2024-03-02T06:35:18;18.10;;;3.10;;
65658;SDS011;60181;53.258;6.932;2024-03-02T06:39:29;8.10;;;2.80;;
65658;SDS011;60181;53.258;6.932;2024-03-02T06:43:41;8.10;;;2.80;;
65658;SDS011;60181;53.258;6.932;2024-03-02T06:47:53;8.10;;;2.80;;
65658;SDS011;60181;53.258;6.932;2024-03-02T06:52:05;6.30;;;2.30;;
65658;SDS011;60181;53.258;6.932;2024-03-02T06:56:17;6.30;;;2.30;;
65658;SDS011;60181;53.258;6.932;2024-03-02T07:00:29;7.00;;;2.10;;
65658;SDS011;60181;53.258;6.932;2024-03-02T07:04:41;7.00;;;2.10;;
65658;SDS011;60181;53.258;6.932;2024-03-02T07:08:53;7.00;;;2.10;;
65658;SDS011;60181;53.258;6.932;2024-03-02T07:13:05;8.50;;;2.10;;
65658;SDS011;60181;53.258;6.932;2024-03-02T07:17:17;8.50;;;2.10;;
65658;SDS011;60181;53.258;6.932;2024-03-02T07:21:29;5.00;;;1.90;;
65658;SDS011;60181;53.258;6.932;2024-03-02T07:25:41;5.00;;;1.90;;
65658;SDS011;60181;53.258;6.932;2024-03-02T07:29:53;3.30;;;1.70;;
65658;SDS011;60181;53.258;6.932;2024-03-02T07:34:05;3.30;;;1.70;;
65658;SDS011;60181;53.258;6.932;2024-03-02T07:38:17;3.30;;;1.70;;
65658;SDS011;60181;53.258;6.932;2024-03-02T07:42:29;2.80;;;1.80;;
65658;SDS011;60181;53.258;6.932;2024-03-02T07:46:42;2.80;;;1.80;;
65658;SDS011;60181;53.258;6.932;2024-03-02T07:50:53;4.10;;;1.70;;
65658;SDS011;60181;53.258;6.932;2024-03-02T07:55:06;4.10;;;1.70;;
65658;SDS011;60181;53.258;6.932;2024-03-02T07:59:17;2.90;;;1.60;;
65658;SDS011;60181;53.258;6.932;2024-03-02T08:03:29;2.90;;;1.60;;
65658;SDS011;60181;53.258;6.932;2024-03-02T08:07:41;2.90;;;1.60;;
65658;SDS011;60181;53.258;6.932;2024-03-02T08:11:53;4.40;;;1.50;;
65658;SDS011;60181;53.258;6.932;2024-03-02T08:16:05;4.40;;;1.50;;
65658;SDS011;60181;53.258;6.932;2024-03-02T08:20:17;6.20;;;1.80;;
65658;SDS011;60181;53.258;6.932;2024-03-02T08:24:29;6.20;;;1.80;;
65658;SDS011;60181;53.258;6.932;2024-03-02T08:28:41;6.20;;;1.80;;
65658;SDS011;60181;53.258;6.932;2024-03-02T08:32:53;2.50;;;1.30;;
65658;SDS011;60181;53.258;6.932;2024-03-02T08:37:05;2.50;;;1.30;;
65658;SDS011;60181;53.258;6.932;2024-03-02T08:41:17;2.10;;;1.30;;
65658;SDS011;60181;53.258;6.932;2024-03-02T08:45:29;2.10;;;1.30;;
65658;SDS011;60181;53.258;6.932;2024-03-02T08:49:41;3.20;;;1.40;;
65658;SDS011;60181;53.258;6.932;2024-03-02T08:53:53;3.20;;;1.40;;
65658;SDS011;60181;53.258;6.932;2024-03-02T08:58:05;3.20;;;1.40;;
65658;SDS011;60181;53.258;6.932;2024-03-02T09:02:17;2.80;;;1.40;;
65658;SDS011;60181;53.258;6.932;2024-03-02T09:06:29;2.80;;;1.40;;
65658;SDS011;60181;53.258;6.932;2024-03-02T09:10:41;4.60;;;1.30;;
65658;SDS011;60181;53.258;6.932;2024-03-02T09:14:53;4.60;;;1.30;;
65658;SDS011;60181;53.258;6.932;2024-03-02T09:19:05;4.60;;;1.50;;
65658;SDS011;60181;53.258;6.932;2024-03-02T09:23:17;4.60;;;1.50;;
65658;SDS011;60181;53.258;6.932;2024-03-02T09:27:29;4.60;;;1.50;;
65658;SDS011;60181;53.258;6.932;2024-03-02T09:31:42;7.10;;;1.50;;
65658;SDS011;60181;53.258;6.932;2024-03-02T09:35:53;7.10;;;1.50;;
65658;SDS011;60181;53.258;6.932;2024-03-02T09:40:05;21.60;;;1.90;;
65658;SDS011;60181;53.258;6.932;2024-03-02T09:44:17;21.60;;;1.90;;
65658;SDS011;60181;53.258;6.932;2024-03-02T09:48:29;21.60;;;1.90;;
65658;SDS011;60181;53.258;6.932;2024-03-02T09:52:44;19.50;;;2.60;;
65658;SDS011;60181;53.258;6.932;2024-03-02T09:56:53;19.50;;;2.60;;
65658;SDS011;60181;53.258;6.932;2024-03-02T10:01:05;16.00;;;1.70;;
65658;SDS011;60181;53.258;6.932;2024-03-02T10:05:23;16.00;;;1.70;;
65658;SDS011;60181;53.258;6.932;2024-03-02T10:09:29;10.60;;;1.70;;
65658;SDS011;60181;53.258;6.932;2024-03-02T10:13:41;10.60;;;1.70;;
65658;SDS011;60181;53.258;6.932;2024-03-02T10:17:53;10.60;;;1.70;;
65658;SDS011;60181;53.258;6.932;2024-03-02T10:22:06;7.60;;;1.50;;
65658;SDS011;60181;53.258;6.932;2024-03-02T10:26:17;7.60;;;1.50;;
65658;SDS011;60181;53.258;6.932;2024-03-02T10:30:29;8.70;;;1.60;;
65658;SDS011;60181;53.258;6.932;2024-03-02T10:34:42;8.70;;;1.60;;
65658;SDS011;60181;53.258;6.932;2024-03-02T10:38:53;8.70;;;1.60;;
65658;SDS011;60181;53.258;6.932;2024-03-02T10:43:05;6.80;;;1.40;;
65658;SDS011;60181;53.258;6.932;2024-03-02T10:47:17;6.80;;;1.40;;
65658;SDS011;60181;53.258;6.932;2024-03-02T10:51:30;3.00;;;1.30;;
65658;SDS011;60181;53.258;6.932;2024-03-02T10:55:41;3.00;;;1.30;;
65658;SDS011;60181;53.258;6.932;2024-03-02T10:59:55;2.10;;;1.10;;
65658;SDS011;60181;53.258;6.932;2024-03-02T11:04:06;2.10;;;1.10;;
65658;SDS011;60181;53.258;6.932;2024-03-02T11:08:18;2.10;;;1.10;;
65658;SDS011;60181;53.258;6.932;2024-03-02T11:12:29;6.10;;;1.40;;
65658;SDS011;60181;53.258;6.932;2024-03-02T11:16:41;6.10;;;1.40;;
65658;SDS011;60181;53.258;6.932;2024-03-02T11:20:53;3.80;;;1.20;;
65658;SDS011;60181;53.258;6.932;2024-03-02T11:25:05;3.80;;;1.20;;
65658;SDS011;60181;53.258;6.932;2024-03-02T11:29:42;4.70;;;1.20;;
65658;SDS011;60181;53.258;6.932;2024-03-02T11:33:29;4.70;;;1.20;;
65658;SDS011;60181;53.258;6.932;2024-03-02T11:37:41;4.70;;;1.20;;
65658;SDS011;60181;53.258;6.932;2024-03-02T11:41:53;4.10;;;1.10;;
65658;SDS011;60181;53.258;6.932;2024-03-02T11:46:05;4.10;;;1.10;;
65658;SDS011;60181;53.258;6.932;2024-03-02T11:50:29;5.50;;;1.10;;
65658;SDS011;60181;53.258;6.932;2024-03-02T11:54:29;5.50;;;1.10;;
65658;SDS011;60181;53.258;6.932;2024-03-02T11:58:41;5.50;;;1.10;;
65658;SDS011;60181;53.258;6.932;2024-03-02T12:03:00;2.90;;;1.20;;
65658;SDS011;60181;53.258;6.932;2024-03-02T12:07:05;2.90;;;1.20;;
65658;SDS011;60181;53.258;6.932;2024-03-02T12:11:17;2.20;;;1.30;;
65658;SDS011;60181;53.258;6.932;2024-03-02T12:15:30;2.20;;;1.30;;
65658;SDS011;60181;53.258;6.932;2024-03-02T12:19:41;3.30;;;1.20;;
65658;SDS011;60181;53.258;6.932;2024-03-02T12:23:53;3.30;;;1.20;;
65658;SDS011;60181;53.258;6.932;2024-03-02T12:28:05;3.30;;;1.20;;
65658;SDS011;60181;53.258;6.932;2024-03-02T12:32:17;2.70;;;1.00;;
65658;SDS011;60181;53.258;6.932;2024-03-02T12:36:29;2.70;;;1.00;;
65658;SDS011;60181;53.258;6.932;2024-03-02T12:40:41;3.20;;;1.20;;
65658;SDS011;60181;53.258;6.932;2024-03-02T12:44:53;3.20;;;1.20;;
65658;SDS011;60181;53.258;6.932;2024-03-02T12:49:07;4.50;;;1.20;;
65658;SDS011;60181;53.258;6.932;2024-03-02T12:53:17;4.50;;;1.20;;
65658;SDS011;60181;53.258;6.932;2024-03-02T12:57:29;4.50;;;1.20;;
65658;SDS011;60181;53.258;6.932;2024-03-02T13:01:49;2.90;;;1.30;;
65658;SDS011;60181;53.258;6.932;2024-03-02T13:05:53;2.90;;;1.30;;
65658;SDS011;60181;53.258;6.932;2024-03-02T13:10:05;2.30;;;1.30;;
65658;SDS011;60181;53.258;6.932;2024-03-02T13:14:17;2.30;;;1.30;;
65658;SDS011;60181;53.258;6.932;2024-03-02T13:18:29;2.30;;;1.30;;
65658;SDS011;60181;53.258;6.932;2024-03-02T13:22:41;2.50;;;1.30;;
65658;SDS011;60181;53.258;6.932;2024-03-02T13:26:53;2.50;;;1.30;;
65658;SDS011;60181;53.258;6.932;2024-03-02T13:31:05;3.00;;;1.10;;
65658;SDS011;60181;53.258;6.932;2024-03-02T13:35:17;3.00;;;1.10;;
65658;SDS011;60181;53.258;6.932;2024-03-02T13:39:29;2.60;;;1.20;;
65658;SDS011;60181;53.258;6.932;2024-03-02T13:43:41;2.60;;;1.20;;
65658;SDS011;60181;53.258;6.932;2024-03-02T13:47:53;2.60;;;1.20;;
65658;SDS011;60181;53.258;6.932;2024-03-02T13:52:05;2.00;;;1.30;;
65658;SDS011;60181;53.258;6.932;2024-03-02T13:56:17;2.00;;;1.30;;
65658;SDS011;60181;53.258;6.932;2024-03-02T14:00:29;2.30;;;1.30;;
65658;SDS011;60181;53.258;6.932;2024-03-02T14:04:41;2.30;;;1.30;;
65658;SDS011;60181;53.258;6.932;2024-03-02T14:08:53;2.30;;;1.30;;
65658;SDS011;60181;53.258;6.932;2024-03-02T14:13:05;2.50;;;1.30;;
65658;SDS011;60181;53.258;6.932;2024-03-02T14:17:17;2.50;;;1.30;;
65658;SDS011;60181;53.258;6.932;2024-03-02T14:21:29;1.50;;;1.10;;
65658;SDS011;60181;53.258;6.932;2024-03-02T14:25:41;1.50;;;1.10;;
65658;SDS011;60181;53.258;6.932;2024-03-02T14:29:53;3.30;;;1.10;;
65658;SDS011;60181;53.258;6.932;2024-03-02T14:34:05;3.30;;;1.10;;
65658;SDS011;60181;53.258;6.932;2024-03-02T14:38:17;3.30;;;1.10;;
65658;SDS011;60181;53.258;6.932;2024-03-02T14:42:29;2.30;;;1.20;;
65658;SDS011;60181;53.258;6.932;2024-03-02T14:46:41;2.30;;;1.20;;
65658;SDS011;60181;53.258;6.932;2024-03-02T14:50:53;2.00;;;1.20;;
65658;SDS011;60181;53.258;6.932;2024-03-02T14:55:05;2.00;;;1.20;;
65658;SDS011;60181;53.258;6.932;2024-03-02T14:59:17;2.70;;;1.30;;
65658;SDS011;60181;53.258;6.932;2024-03-02T15:03:29;2.70;;;1.30;;
65658;SDS011;60181;53.258;6.932;2024-03-02T15:07:41;2.70;;;1.30;;
65658;SDS011;60181;53.258;6.932;2024-03-02T15:11:53;3.10;;;1.10;;
65658;SDS011;60181;53.258;6.932;2024-03-02T15:16:05;3.10;;;1.10;;
65658;SDS011;60181;53.258;6.932;2024-03-02T15:20:17;1.30;;;1.10;;
65658;SDS011;60181;53.258;6.932;2024-03-02T15:24:29;1.30;;;1.10;;
65658;SDS011;60181;53.258;6.932;2024-03-02T15:28:41;1.30;;;1.10;;
65658;SDS011;60181;53.258;6.932;2024-03-02T15:32:53;2.90;;;1.30;;
65658;SDS011;60181;53.258;6.932;2024-03-02T15:37:05;2.90;;;1.30;;
65658;SDS011;60181;53.258;6.932;2024-03-02T15:41:17;1.70;;;1.10;;
65658;SDS011;60181;53.258;6.932;2024-03-02T15:45:29;1.70;;;1.10;;
65658;SDS011;60181;53.258;6.932;2024-03-02T15:49:41;3.10;;;1.30;;
65658;SDS011;60181;53.258;6.932;2024-03-02T15:53:53;3.10;;;1.30;;
65658;SDS011;60181;53.258;6.932;2024-03-02T15:58:05;3.10;;;1.30;;
65658;SDS011;60181;53.258;6.932;2024-03-02T16:02:17;1.40;;;1.10;;
65658;SDS011;60181;53.258;6.932;2024-03-02T16:06:29;1.40;;;1.10;;
65658;SDS011;60181;53.258;6.932;2024-03-02T16:10:41;2.10;;;1.30;;
65658;SDS011;60181;53.258;6.932;2024-03-02T16:14:53;2.10;;;1.30;;
65658;SDS011;60181;53.258;6.932;2024-03-02T16:19:05;3.10;;;1.30;;
65658;SDS011;60181;53.258;6.932;2024-03-02T16:23:17;3.10;;;1.30;;
65658;SDS011;60181;53.258;6.932;2024-03-02T16:27:29;3.10;;;1.30;;
65658;SDS011;60181;53.258;6.932;2024-03-02T16:31:41;1.40;;;1.20;;
65658;SDS011;60181;53.258;6.932;2024-03-02T16:35:53;1.40;;;1.20;;
65658;SDS011;60181;53.258;6.932;2024-03-02T16:40:05;2.60;;;1.30;;
65658;SDS011;60181;53.258;6.932;2024-03-02T16:44:17;2.60;;;1.30;;
65658;SDS011;60181;53.258;6.932;2024-03-02T16:48:29;2.60;;;1.30;;
65658;SDS011;60181;53.258;6.932;2024-03-02T16:52:41;2.40;;;1.30;;
65658;SDS011;60181;53.258;6.932;2024-03-02T16:56:53;2.40;;;1.30;;
65658;SDS011;60181;53.258;6.932;2024-03-02T17:01:05;2.30;;;1.40;;
65658;SDS011;60181;53.258;6.932;2024-03-02T17:05:17;2.30;;;1.40;;
65658;SDS011;60181;53.258;6.932;2024-03-02T17:09:29;2.80;;;1.90;;
65658;SDS011;60181;53.258;6.932;2024-03-02T17:13:41;2.80;;;1.90;;
65658;SDS011;60181;53.258;6.932;2024-03-02T17:17:53;2.80;;;1.90;;
65658;SDS011;60181;53.258;6.932;2024-03-02T17:22:05;2.60;;;1.90;;
65658;SDS011;60181;53.258;6.932;2024-03-02T17:26:17;2.60;;;1.90;;
65658;SDS011;60181;53.258;6.932;2024-03-02T17:30:28;5.10;;;2.40;;
65658;SDS011;60181;53.258;6.932;2024-03-02T17:34:40;5.10;;;2.40;;
65658;SDS011;60181;53.258;6.932;2024-03-02T17:38:52;5.10;;;2.40;;
65658;SDS011;60181;53.258;6.932;2024-03-02T17:43:05;5.30;;;2.10;;
65658;SDS011;60181;53.258;6.932;2024-03-02T17:47:16;5.30;;;2.10;;
65658;SDS011;60181;53.258;6.932;2024-03-02T17:51:28;7.50;;;2.60;;
65658;SDS011;60181;53.258;6.932;2024-03-02T17:55:40;7.50;;;2.60;;
65658;SDS011;60181;53.258;6.932;2024-03-02T17:59:53;9.50;;;2.90;;
65658;SDS011;60181;53.258;6.932;2024-03-02T18:04:04;9.50;;;2.90;;
65658;SDS011;60181;53.258;6.932;2024-03-02T18:08:16;9.50;;;2.90;;
65658;SDS011;60181;53.258;6.932;2024-03-02T18:12:28;7.60;;;2.80;;
65658;SDS011;60181;53.258;6.932;2024-03-02T18:16:40;7.60;;;2.80;;
65658;SDS011;60181;53.258;6.932;2024-03-02T18:20:52;6.70;;;3.00;;
65658;SDS011;60181;53.258;6.932;2024-03-02T18:25:05;6.70;;;3.00;;
65658;SDS011;60181;53.258;6.932;2024-03-02T18:29:16;7.90;;;2.90;;
65658;SDS011;60181;53.258;6.932;2024-03-02T18:33:28;7.90;;;2.90;;
65658;SDS011;60181;53.258;6.932;2024-03-02T18:37:40;7.90;;;2.90;;
65658;SDS011;60181;53.258;6.932;2024-03-02T18:41:52;8.70;;;3.10;;
65658;SDS011;60181;53.258;6.932;2024-03-02T18:46:09;8.70;;;3.10;;
65658;SDS011;60181;53.258;6.932;2024-03-02T18:50:16;7.70;;;3.10;;
65658;SDS011;60181;53.258;6.932;2024-03-02T18:54:28;7.70;;;3.10;;
65658;SDS011;60181;53.258;6.932;2024-03-02T18:58:40;7.70;;;3.10;;
65658;SDS011;60181;53.258;6.932;2024-03-02T19:02:52;6.30;;;2.80;;
65658;SDS011;60181;53.258;6.932;2024-03-02T19:07:04;6.30;;;2.80;;
65658;SDS011;60181;53.258;6.932;2024-03-02T19:11:16;6.50;;;3.00;;
65658;SDS011;60181;53.258;6.932;2024-03-02T19:15:28;6.50;;;3.00;;
65658;SDS011;60181;53.258;6.932;2024-03-02T19:19:40;6.40;;;3.00;;
65658;SDS011;60181;53.258;6.932;2024-03-02T19:23:52;6.40;;;3.00;;
65658;SDS011;60181;53.258;6.932;2024-03-02T19:28:05;6.40;;;3.00;;
65658;SDS011;60181;53.258;6.932;2024-03-02T19:32:16;8.20;;;3.30;;
65658;SDS011;60181;53.258;6.932;2024-03-02T19:36:28;8.20;;;3.30;;
65658;SDS011;60181;53.258;6.932;2024-03-02T19:40:40;7.80;;;3.00;;
65658;SDS011;60181;53.258;6.932;2024-03-02T19:44:52;7.80;;;3.00;;
65658;SDS011;60181;53.258;6.932;2024-03-02T19:49:04;10.20;;;3.40;;
65658;SDS011;60181;53.258;6.932;2024-03-02T19:53:16;10.20;;;3.40;;
65658;SDS011;60181;53.258;6.932;2024-03-02T19:57:28;10.20;;;3.40;;
65658;SDS011;60181;53.258;6.932;2024-03-02T20:01:40;6.30;;;2.90;;
65658;SDS011;60181;53.258;6.932;2024-03-02T20:05:52;6.30;;;2.90;;
65658;SDS011;60181;53.258;6.932;2024-03-02T20:10:05;7.60;;;3.40;;
65658;SDS011;60181;53.258;6.932;2024-03-02T20:14:16;7.60;;;3.40;;
65658;SDS011;60181;53.258;6.932;2024-03-02T20:18:28;7.60;;;3.40;;
65658;SDS011;60181;53.258;6.932;2024-03-02T20:22:40;6.50;;;3.20;;
65658;SDS011;60181;53.258;6.932;2024-03-02T20:26:52;6.50;;;3.20;;
65658;SDS011;60181;53.258;6.932;2024-03-02T20:31:04;6.70;;;3.00;;
65658;SDS011;60181;53.258;6.932;2024-03-02T20:35:16;6.70;;;3.00;;
65658;SDS011;60181;53.258;6.932;2024-03-02T20:39:28;7.80;;;3.10;;
65658;SDS011;60181;53.258;6.932;2024-03-02T20:43:40;7.80;;;3.10;;
65658;SDS011;60181;53.258;6.932;2024-03-02T20:47:52;7.80;;;3.10;;
65658;SDS011;60181;53.258;6.932;2024-03-02T20:52:04;6.90;;;3.00;;
65658;SDS011;60181;53.258;6.932;2024-03-02T20:56:16;6.90;;;3.00;;
65658;SDS011;60181;53.258;6.932;2024-03-02T21:00:28;7.10;;;3.10;;
65658;SDS011;60181;53.258;6.932;2024-03-02T21:04:41;7.10;;;3.10;;
65658;SDS011;60181;53.258;6.932;2024-03-02T21:08:52;7.10;;;3.10;;
65658;SDS011;60181;53.258;6.932;2024-03-02T21:13:04;7.70;;;3.10;;
65658;SDS011;60181;53.258;6.932;2024-03-02T21:17:16;7.70;;;3.10;;
65658;SDS011;60181;53.258;6.932;2024-03-02T21:21:28;6.60;;;3.10;;
65658;SDS011;60181;53.258;6.932;2024-03-02T21:25:41;6.60;;;3.10;;
65658;SDS011;60181;53.258;6.932;2024-03-02T21:29:52;6.20;;;3.00;;
65658;SDS011;60181;53.258;6.932;2024-03-02T21:34:04;6.20;;;3.00;;
65658;SDS011;60181;53.258;6.932;2024-03-02T21:38:16;6.20;;;3.00;;
65658;SDS011;60181;53.258;6.932;2024-03-02T21:42:28;8.00;;;3.00;;
65658;SDS011;60181;53.258;6.932;2024-03-02T21:46:40;8.00;;;3.00;;
65658;SDS011;60181;53.258;6.932;2024-03-02T21:50:52;5.90;;;3.20;;
65658;SDS011;60181;53.258;6.932;2024-03-02T21:55:04;5.90;;;3.20;;
65658;SDS011;60181;53.258;6.932;2024-03-02T21:59:16;7.40;;;2.90;;
65658;SDS011;60181;53.258;6.932;2024-03-02T22:03:28;7.40;;;2.90;;
65658;SDS011;60181;53.258;6.932;2024-03-02T22:07:40;7.40;;;2.90;;
65658;SDS011;60181;53.258;6.932;2024-03-02T22:11:52;21.10;;;4.80;;
65658;SDS011;60181;53.258;6.932;2024-03-02T22:16:04;21.10;;;4.80;;
65658;SDS011;60181;53.258;6.932;2024-03-02T22:20:16;14.30;;;4.80;;
65658;SDS011;60181;53.258;6.932;2024-03-02T22:24:28;14.30;;;4.80;;
65658;SDS011;60181;53.258;6.932;2024-03-02T22:28:40;14.30;;;4.80;;
65658;SDS011;60181;53.258;6.932;2024-03-02T22:32:52;15.30;;;5.60;;
65658;SDS011;60181;53.258;6.932;2024-03-02T22:37:04;15.30;;;5.60;;
65658;SDS011;60181;53.258;6.932;2024-03-02T22:41:16;15.50;;;6.20;;
65658;SDS011;60181;53.258;6.932;2024-03-02T22:45:28;15.50;;;6.20;;
65658;SDS011;60181;53.258;6.932;2024-03-02T22:49:40;11.20;;;5.60;;
65658;SDS011;60181;53.258;6.932;2024-03-02T22:53:52;11.20;;;5.60;;
65658;SDS011;60181;53.258;6.932;2024-03-02T22:58:04;11.20;;;5.60;;
65658;SDS011;60181;53.258;6.932;2024-03-02T23:02:16;12.10;;;5.90;;
65658;SDS011;60181;53.258;6.932;2024-03-02T23:06:28;12.10;;;5.90;;
65658;SDS011;60181;53.258;6.932;2024-03-02T23:10:40;13.80;;;6.30;;
65658;SDS011;60181;53.258;6.932;2024-03-02T23:14:52;13.80;;;6.30;;
65658;SDS011;60181;53.258;6.932;2024-03-02T23:19:04;13.10;;;6.50;;
65658;SDS011;60181;53.258;6.932;2024-03-02T23:23:16;13.10;;;6.50;;
65658;SDS011;60181;53.258;6.932;2024-03-02T23:27:28;13.10;;;6.50;;
65658;SDS011;60181;53.258;6.932;2024-03-02T23:31:40;16.50;;;7.10;;
65658;SDS011;60181;53.258;6.932;2024-03-02T23:35:52;16.50;;;7.10;;
65658;SDS011;60181;53.258;6.932;2024-03-02T23:40:04;16.20;;;6.80;;
65658;SDS011;60181;53.258;6.932;2024-03-02T23:44:16;16.20;;;6.80;;
65658;SDS011;60181;53.258;6.932;2024-03-02T23:48:28;16.20;;;6.80;;
65658;SDS011;60181;53.258;6.932;2024-03-02T23:52:40;15.00;;;7.30;;
65658;SDS011;60181;53.258;6.932;2024-03-02T23:56:52;15.00;;;7.30;;
